Time;durP1;ratioP1;P1;durP2;ratioP2;P2;SDS_P1;SDS_P2;PMS_P1;PMS_P2;Temp;Humidity;BMP_temperature;BMP_pressure;BME280_temperature;BME280_humidity;BME280_pressure;Samples;Min_cycle;Max_cycle;Signal;HPM_P1;HPM_P2
2022/01/28 00:00:40;;;;;;;16.80;3.97;;;6.30;99.90;;;;;;4919803;29;20449;-53
2022/01/28 00:03:08;;;;;;;6.80;1.17;;;6.40;99.90;;;;;;4919708;29;20507;-53
2022/01/28 00:05:36;;;;;;;2.90;0.77;;;6.30;99.90;;;;;;4919096;29;20470;-51
2022/01/28 00:08:05;;;;;;;1.20;1.10;;;6.30;99.90;;;;;;4918860;29;20455;-50
2022/01/28 00:10:34;;;;;;;1.37;1.27;;;6.40;99.90;;;;;;4918656;29;20466;-54
2022/01/28 00:19:06;;;;;;;4.07;2.67;;;6.40;99.90;;;;;;4905868;29;20952;-55
2022/01/28 00:38:10;;;;;;;9.70;2.17;;;6.30;99.90;;;;;;4919288;29;20451;-53
2022/01/28 00:40:37;;;;;;;3.83;1.23;;;6.20;99.90;;;;;;4919423;29;20478;-50
2022/01/28 00:43:06;;;;;;;4.50;1.40;;;6.30;99.90;;;;;;4919401;29;20499;-48
2022/01/28 00:45:33;;;;;;;13.53;2.20;;;6.20;99.90;;;;;;4919512;29;20496;-55
2022/01/28 00:48:00;;;;;;;2.50;0.80;;;6.20;99.90;;;;;;4917349;29;20491;-53
2022/01/28 00:50:27;;;;;;;4.43;0.90;;;6.30;99.90;;;;;;4917915;29;20455;-52
2022/01/28 00:52:53;;;;;;;16.07;1.23;;;6.40;99.90;;;;;;4918944;29;20515;-54
2022/01/28 00:55:20;;;;;;;3.30;1.70;;;6.40;99.90;;;;;;4919376;29;20451;-53
2022/01/28 00:57:47;;;;;;;6.10;2.40;;;6.40;99.90;;;;;;4919396;29;20471;-53
2022/01/28 01:00:15;;;;;;;9.20;2.07;;;6.40;99.90;;;;;;4919021;29;20819;-52
2022/01/28 01:02:42;;;;;;;6.27;1.77;;;6.40;99.90;;;;;;4919207;29;20447;-53
2022/01/28 01:05:09;;;;;;;2.17;1.10;;;6.30;99.90;;;;;;4917523;29;20470;-55
2022/01/28 01:07:37;;;;;;;4.20;1.27;;;6.40;99.90;;;;;;4917803;29;20467;-55
2022/01/28 01:10:06;;;;;;;8.57;1.17;;;6.40;99.90;;;;;;4917341;29;20471;-53
2022/01/28 01:12:36;;;;;;;8.23;0.93;;;6.40;99.90;;;;;;4917463;29;20439;-54
2022/01/28 01:15:03;;;;;;;5.90;1.93;;;6.40;99.90;;;;;;4917937;29;20469;-52
2022/01/28 01:17:35;;;;;;;7.90;1.47;;;6.30;99.90;;;;;;4918350;29;20467;-53
2022/01/28 01:22:51;;;;;;;6.93;2.17;;;6.30;99.90;;;;;;4918147;29;20478;-54
2022/01/28 01:25:26;;;;;;;1.30;1.10;;;6.20;99.90;;;;;;4916759;29;20449;-59
2022/01/28 01:27:55;;;;;;;3.17;2.20;;;6.20;99.90;;;;;;4917793;29;20478;-52
2022/01/28 01:30:23;;;;;;;3.40;1.30;;;6.20;99.90;;;;;;4917610;29;20439;-57
2022/01/28 01:32:51;;;;;;;3.87;1.07;;;6.10;99.90;;;;;;4916926;29;20614;-55
2022/01/28 01:35:18;;;;;;;4.20;1.37;;;6.20;99.90;;;;;;4916187;29;20511;-54
2022/01/28 01:37:44;;;;;;;1.97;0.97;;;6.30;99.90;;;;;;4916618;29;20492;-55
2022/01/28 01:40:12;;;;;;;3.63;1.13;;;6.20;99.90;;;;;;4917136;29;20478;-52
2022/01/28 01:42:47;;;;;;;2.60;1.10;;;6.20;99.90;;;;;;4917401;29;20531;-52
2022/01/28 01:53:28;;;;;;;9.70;0.97;;;6.20;99.90;;;;;;4918107;29;20463;-55
2022/01/28 01:55:56;;;;;;;2.20;0.80;;;6.20;99.90;;;;;;4916873;29;20447;-56
2022/01/28 01:58:29;;;;;;;3.10;0.83;;;6.10;99.90;;;;;;4916879;29;20543;-54
2022/01/28 02:00:56;;;;;;;6.77;2.43;;;6.10;99.90;;;;;;4917226;29;20443;-54
2022/01/28 02:03:24;;;;;;;6.40;1.57;;;6.10;99.90;;;;;;4917552;29;20924;-57
2022/01/28 02:05:51;;;;;;;1.17;0.87;;;6.10;99.90;;;;;;4916137;29;20479;-52
2022/01/28 02:08:18;;;;;;;3.47;1.40;;;6.20;99.90;;;;;;4916841;29;20510;-53
2022/01/28 02:10:45;;;;;;;5.63;0.97;;;6.20;99.90;;;;;;4916794;29;20470;-49
2022/01/28 02:13:11;;;;;;;6.80;1.53;;;6.20;99.90;;;;;;4917374;29;20499;-49
2022/01/28 02:15:39;;;;;;;4.90;1.40;;;6.20;99.90;;;;;;4918451;29;20451;-49
2022/01/28 02:18:05;;;;;;;13.70;1.73;;;6.20;99.90;;;;;;4917648;29;20463;-56
2022/01/28 02:20:37;;;;;;;12.67;1.20;;;6.20;99.90;;;;;;4917073;29;20450;-56
2022/01/28 02:23:05;;;;;;;9.37;1.07;;;6.10;99.90;;;;;;4917201;29;20480;-54
2022/01/28 02:25:34;;;;;;;8.13;1.90;;;6.10;99.90;;;;;;4916885;29;20474;-52
2022/01/28 02:28:02;;;;;;;3.70;1.23;;;6.10;99.90;;;;;;4917378;29;20600;-53
2022/01/28 02:30:29;;;;;;;11.43;2.00;;;6.00;99.90;;;;;;4917616;29;20487;-57
2022/01/28 02:33:01;;;;;;;1.53;0.90;;;6.00;99.90;;;;;;4915684;29;20463;-58
2022/01/28 02:35:28;;;;;;;1.70;0.97;;;6.10;99.90;;;;;;4915216;29;20504;-52
2022/01/28 02:37:57;;;;;;;7.70;1.83;;;6.20;99.90;;;;;;4914065;29;20455;-53
2022/01/28 02:40:26;;;;;;;4.83;1.67;;;6.30;99.90;;;;;;4915929;29;20443;-52
2022/01/28 02:42:59;;;;;;;2.03;1.10;;;6.20;99.90;;;;;;4916539;29;20453;-52
2022/01/28 02:45:30;;;;;;;2.03;1.33;;;6.20;99.90;;;;;;4916874;29;20446;-55
2022/01/28 02:48:01;;;;;;;1.40;0.93;;;6.10;99.90;;;;;;4917003;29;20566;-52
2022/01/28 02:50:31;;;;;;;2.83;1.93;;;6.00;99.90;;;;;;4917449;29;20535;-49
2022/01/28 02:53:05;;;;;;;2.80;1.30;;;5.90;99.90;;;;;;4917195;29;20493;-53
2022/01/28 02:55:37;;;;;;;10.83;2.20;;;5.70;99.90;;;;;;4916242;29;20506;-56
2022/01/28 02:58:20;;;;;;;6.83;1.40;;;5.80;99.90;;;;;;4915488;29;20428;-55
2022/01/28 03:00:48;;;;;;;11.77;5.10;;;5.90;99.90;;;;;;4916513;29;20539;-52
2022/01/28 03:03:15;;;;;;;3.67;1.50;;;5.90;99.90;;;;;;4914934;29;20451;-50
2022/01/28 03:05:42;;;;;;;3.37;1.67;;;5.90;99.90;;;;;;4913794;29;20486;-54
2022/01/28 03:08:11;;;;;;;3.00;1.33;;;6.00;99.90;;;;;;4913860;29;20519;-50
2022/01/28 03:11:07;;;;;;;2.57;1.33;;;6.10;99.90;;;;;;4914421;29;20455;-54
2022/01/28 03:13:56;;;;;;;1.73;1.37;;;6.10;99.90;;;;;;4914748;29;20459;-48
2022/01/28 03:16:22;;;;;;;8.03;1.33;;;6.00;99.90;;;;;;4913865;29;20457;-48
2022/01/28 03:18:52;;;;;;;10.90;1.60;;;6.00;99.90;;;;;;4914915;29;20772;-47
2022/01/28 03:21:38;;;;;;;6.20;1.47;;;5.90;99.90;;;;;;4914264;29;20467;-54
2022/01/28 03:24:08;;;;;;;6.07;1.67;;;5.90;99.90;;;;;;4914225;29;20497;-52
2022/01/28 03:26:35;;;;;;;7.20;2.03;;;5.90;99.90;;;;;;4914368;29;20454;-56
2022/01/28 03:29:02;;;;;;;1.30;0.90;;;5.80;99.90;;;;;;4914629;29;20473;-53
2022/01/28 03:31:28;;;;;;;4.80;2.60;;;5.80;99.90;;;;;;4914198;29;20457;-56
2022/01/28 03:33:55;;;;;;;6.30;1.90;;;5.80;99.90;;;;;;4915730;29;20495;-56
2022/01/28 03:36:22;;;;;;;3.47;1.37;;;6.00;99.90;;;;;;4914997;29;20532;-55
2022/01/28 03:38:49;;;;;;;14.07;1.83;;;5.90;99.90;;;;;;4914735;29;20459;-56
2022/01/28 03:41:17;;;;;;;4.63;0.83;;;5.90;99.90;;;;;;4914804;29;20466;-52
2022/01/28 03:43:44;;;;;;;3.03;1.67;;;5.80;99.90;;;;;;4916037;29;20450;-49
2022/01/28 03:46:11;;;;;;;0.90;0.60;;;5.70;99.90;;;;;;4916622;29;20447;-56
2022/01/28 03:48:38;;;;;;;7.87;2.50;;;5.60;99.90;;;;;;4916507;29;20498;-55
2022/01/28 03:51:06;;;;;;;1.20;0.80;;;5.60;99.90;;;;;;4915236;29;20455;-54
2022/01/28 03:53:33;;;;;;;4.30;1.17;;;5.60;99.90;;;;;;4914876;29;20463;-55
2022/01/28 03:56:00;;;;;;;22.93;2.17;;;5.60;99.90;;;;;;4899539;29;20463;-53
2022/01/28 03:58:28;;;;;;;2.97;1.60;;;5.60;99.90;;;;;;4917679;29;20493;-56
2022/01/28 04:00:56;;;;;;;2.70;1.00;;;5.60;99.90;;;;;;4918895;29;20960;-51
2022/01/28 04:11:49;;;;;;;7.10;1.33;;;5.70;99.90;;;;;;4918341;29;20418;-48
2022/01/28 04:14:29;;;;;;;11.13;1.10;;;5.70;99.90;;;;;;4917240;29;20430;-56
2022/01/28 04:19:40;;;;;;;1.70;1.37;;;5.70;99.90;;;;;;4917808;29;20469;-55
2022/01/28 04:22:07;;;;;;;18.60;1.70;;;5.70;99.90;;;;;;4916587;29;20462;-57
2022/01/28 04:24:34;;;;;;;2.43;0.83;;;5.80;99.90;;;;;;4916371;29;20470;-55
2022/01/28 04:27:00;;;;;;;3.17;1.33;;;5.80;99.90;;;;;;4915807;29;20452;-57
2022/01/28 04:29:28;;;;;;;34.17;4.57;;;5.80;99.90;;;;;;4914246;29;20480;-56
2022/01/28 04:31:55;;;;;;;3.57;1.93;;;5.90;99.90;;;;;;4914696;29;20500;-57
2022/01/28 04:34:23;;;;;;;11.33;2.80;;;5.90;99.90;;;;;;4916004;29;20466;-56
2022/01/28 04:37:02;;;;;;;1.93;0.73;;;5.90;99.90;;;;;;4916555;29;20480;-53
2022/01/28 04:39:35;;;;;;;7.93;1.53;;;5.90;99.90;;;;;;4917593;29;20513;-57
2022/01/28 04:42:12;;;;;;;4.30;1.47;;;5.80;99.90;;;;;;4917852;29;20435;-49
2022/01/28 04:44:50;;;;;;;2.30;0.87;;;5.80;99.90;;;;;;4916345;29;20438;-51
2022/01/28 04:47:28;;;;;;;3.10;1.30;;;5.80;99.90;;;;;;4915950;29;20478;-55
2022/01/28 04:50:04;;;;;;;8.93;1.93;;;5.90;99.90;;;;;;4916387;29;20500;-55
2022/01/28 04:52:53;;;;;;;4.70;1.23;;;5.80;99.90;;;;;;4917131;29;20446;-57
2022/01/28 04:55:44;;;;;;;0.97;0.60;;;5.80;99.90;;;;;;4916915;29;20487;-56
2022/01/28 04:58:23;;;;;;;14.53;1.77;;;5.80;99.90;;;;;;4917285;29;20462;-55
2022/01/28 05:01:03;;;;;;;6.93;1.80;;;5.80;99.90;;;;;;4915804;29;20510;-57
2022/01/28 05:03:47;;;;;;;4.20;1.33;;;5.80;99.90;;;;;;4916701;29;20514;-56
2022/01/28 05:15:19;;;;;;;6.87;1.23;;;5.90;99.90;;;;;;4857022;29;20452;-52
2022/01/28 05:23:40;;;;;;;2.70;1.03;;;6.00;99.90;;;;;;4913732;29;20506;-56
2022/01/28 05:26:24;;;;;;;6.03;1.60;;;6.00;99.90;;;;;;4914468;29;20470;-54
2022/01/28 05:28:52;;;;;;;9.33;1.37;;;6.00;99.90;;;;;;4913783;29;20499;-55
2022/01/28 05:31:20;;;;;;;6.30;1.03;;;6.00;99.90;;;;;;4914468;29;20486;-56
2022/01/28 05:33:49;;;;;;;3.33;0.93;;;6.00;99.90;;;;;;4914854;29;20913;-56
2022/01/28 05:36:16;;;;;;;14.53;3.27;;;6.00;99.90;;;;;;4914456;29;20471;-56
2022/01/28 05:38:43;;;;;;;1.47;1.17;;;6.00;99.90;;;;;;4913232;29;21005;-57
2022/01/28 05:41:09;;;;;;;5.90;1.87;;;6.00;99.90;;;;;;4913958;29;20451;-56
2022/01/28 05:43:36;;;;;;;4.57;1.47;;;6.00;99.90;;;;;;4914771;29;20515;-50
2022/01/28 05:46:03;;;;;;;6.47;1.83;;;6.00;99.90;;;;;;4915744;29;20463;-51
2022/01/28 05:48:30;;;;;;;4.87;0.97;;;6.00;99.90;;;;;;4914908;29;20509;-50
2022/01/28 05:50:58;;;;;;;3.13;1.53;;;6.00;99.90;;;;;;4915406;29;20504;-53
2022/01/28 05:53:25;;;;;;;4.50;1.33;;;5.90;99.90;;;;;;4914831;29;20447;-57
2022/01/28 05:55:51;;;;;;;10.60;1.33;;;5.90;99.90;;;;;;4914070;29;20503;-55
2022/01/28 05:58:19;;;;;;;1.30;1.10;;;5.90;99.90;;;;;;4912615;29;20511;-57
2022/01/28 06:00:45;;;;;;;6.23;1.63;;;6.00;99.90;;;;;;4912291;29;20466;-57
2022/01/28 06:03:12;;;;;;;5.50;2.10;;;6.00;99.90;;;;;;4912695;29;20488;-54
2022/01/28 06:05:39;;;;;;;3.30;1.00;;;6.00;99.90;;;;;;4912245;29;20499;-57
2022/01/28 06:08:07;;;;;;;4.63;1.07;;;6.10;99.90;;;;;;4913880;29;20502;-55
2022/01/28 06:10:33;;;;;;;5.23;1.73;;;6.10;99.90;;;;;;4914088;29;20448;-56
2022/01/28 06:13:00;;;;;;;7.47;1.87;;;6.00;99.90;;;;;;4914164;29;20665;-58
2022/01/28 06:15:26;;;;;;;6.37;1.87;;;6.00;99.90;;;;;;4913790;29;20444;-53
2022/01/28 06:17:53;;;;;;;14.03;2.30;;;6.00;99.90;;;;;;4913736;29;20534;-50
2022/01/28 06:20:21;;;;;;;5.80;1.23;;;6.10;99.90;;;;;;4913651;29;20626;-55
2022/01/28 06:22:48;;;;;;;4.13;0.93;;;6.00;99.90;;;;;;4913653;29;20455;-52
2022/01/28 06:25:17;;;;;;;8.30;1.90;;;6.00;99.90;;;;;;4913577;29;20935;-58
2022/01/28 06:27:44;;;;;;;8.83;1.60;;;6.00;99.90;;;;;;4913951;29;20487;-56
2022/01/28 06:30:12;;;;;;;9.50;2.00;;;6.00;99.90;;;;;;4913272;29;20455;-57
2022/01/28 06:32:39;;;;;;;6.90;1.23;;;6.00;99.90;;;;;;4911844;29;20534;-57
2022/01/28 06:35:08;;;;;;;1.20;0.70;;;6.00;99.90;;;;;;4912213;29;20467;-55
2022/01/28 06:37:36;;;;;;;2.27;1.17;;;6.00;99.90;;;;;;4912488;29;20479;-51
2022/01/28 06:40:04;;;;;;;5.93;1.63;;;6.00;99.90;;;;;;4913035;29;20467;-51
2022/01/28 06:42:32;;;;;;;5.03;1.23;;;6.00;99.90;;;;;;4911494;29;20494;-57
2022/01/28 06:44:59;;;;;;;7.43;1.97;;;6.10;99.90;;;;;;4911754;29;20531;-56
2022/01/28 06:47:26;;;;;;;11.63;1.47;;;6.00;99.90;;;;;;4913349;29;20455;-55
2022/01/28 06:49:53;;;;;;;2.70;1.30;;;6.00;99.90;;;;;;4912173;29;20461;-57
2022/01/28 06:52:19;;;;;;;2.27;1.60;;;6.00;99.90;;;;;;4912131;29;20449;-55
2022/01/28 06:54:46;;;;;;;4.17;1.27;;;6.00;99.90;;;;;;4912172;29;20452;-55
2022/01/28 06:57:13;;;;;;;9.83;2.10;;;6.00;99.90;;;;;;4912472;29;20467;-52
2022/01/28 06:59:41;;;;;;;10.03;2.87;;;5.90;99.90;;;;;;4913264;29;20457;-56
2022/01/28 07:02:09;;;;;;;0.90;0.70;;;5.90;99.90;;;;;;4913088;29;20896;-49
2022/01/28 07:04:36;;;;;;;8.00;1.33;;;5.90;99.90;;;;;;4913420;29;20447;-54
2022/01/28 07:07:03;;;;;;;6.57;1.10;;;5.90;99.90;;;;;;4912038;29;20449;-53
2022/01/28 07:09:30;;;;;;;16.43;3.53;;;5.90;99.90;;;;;;4912959;29;20564;-56
2022/01/28 07:11:56;;;;;;;4.63;1.53;;;5.90;99.90;;;;;;4913022;29;20468;-53
2022/01/28 07:14:23;;;;;;;26.53;2.67;;;5.80;99.90;;;;;;4912302;29;20605;-57
2022/01/28 07:16:51;;;;;;;3.87;1.20;;;5.90;99.90;;;;;;4912848;29;20810;-58
2022/01/28 07:19:18;;;;;;;10.67;2.23;;;5.80;99.90;;;;;;4913614;29;20451;-57
2022/01/28 07:21:45;;;;;;;7.77;1.47;;;5.80;99.90;;;;;;4914278;29;20500;-56
2022/01/28 07:24:12;;;;;;;13.30;2.33;;;5.80;99.90;;;;;;4918281;29;20449;-53
2022/01/28 07:26:40;;;;;;;5.27;1.67;;;5.80;99.90;;;;;;4919101;29;20444;-52
2022/01/28 07:29:09;;;;;;;5.10;1.00;;;5.80;99.90;;;;;;4926705;29;20812;-46
2022/01/28 07:31:37;;;;;;;6.47;2.07;;;5.80;99.90;;;;;;4919026;29;20457;-55
2022/01/28 07:34:06;;;;;;;2.50;1.90;;;5.80;99.90;;;;;;4923202;29;20510;-45
2022/01/28 07:36:34;;;;;;;5.63;2.00;;;5.70;99.90;;;;;;4923150;29;20463;-56
2022/01/28 07:39:01;;;;;;;5.57;2.23;;;5.70;99.90;;;;;;4922027;29;20845;-50
2022/01/28 07:41:27;;;;;;;5.47;1.83;;;5.80;99.90;;;;;;4922509;29;20458;-47
2022/01/28 07:43:54;;;;;;;7.77;1.87;;;5.70;99.90;;;;;;4923524;29;20434;-53
2022/01/28 07:46:21;;;;;;;10.67;1.80;;;5.60;99.90;;;;;;4922947;29;20491;-49
2022/01/28 07:48:49;;;;;;;8.43;1.80;;;5.60;99.90;;;;;;4923037;29;20762;-51
2022/01/28 07:51:17;;;;;;;5.80;2.40;;;5.60;99.90;;;;;;4923060;29;20458;-49
2022/01/28 07:53:49;;;;;;;11.20;2.07;;;5.60;99.90;;;;;;4922831;29;20459;-47
2022/01/28 07:56:16;;;;;;;5.63;1.23;;;5.60;99.90;;;;;;4922607;29;20455;-49
2022/01/28 07:58:45;;;;;;;4.20;1.70;;;5.60;99.90;;;;;;4922136;29;20455;-53
2022/01/28 08:01:12;;;;;;;6.43;1.53;;;5.60;99.90;;;;;;4918623;29;20615;-50
2022/01/28 08:03:40;;;;;;;4.47;2.07;;;5.70;99.90;;;;;;4915631;29;20507;-49
2022/01/28 08:06:07;;;;;;;9.87;2.13;;;5.70;99.90;;;;;;4916972;29;20451;-53
2022/01/28 08:08:35;;;;;;;7.30;2.00;;;5.70;99.90;;;;;;4916381;29;20500;-52
2022/01/28 08:11:02;;;;;;;4.13;1.33;;;5.70;99.90;;;;;;4917843;29;20451;-51
2022/01/28 08:13:29;;;;;;;8.13;1.67;;;5.50;99.90;;;;;;4917855;29;21130;-51
2022/01/28 08:15:56;;;;;;;3.50;2.13;;;5.50;99.90;;;;;;4917248;29;20442;-54
2022/01/28 08:18:22;;;;;;;24.90;2.00;;;5.50;99.90;;;;;;4916186;29;20450;-53
2022/01/28 08:20:49;;;;;;;5.13;1.50;;;5.40;99.90;;;;;;4917036;29;20497;-48
2022/01/28 08:23:17;;;;;;;3.40;1.50;;;5.40;99.90;;;;;;4916803;29;20543;-51
2022/01/28 08:25:46;;;;;;;1.77;0.80;;;5.40;99.90;;;;;;4916730;29;20575;-52
2022/01/28 08:28:13;;;;;;;14.20;2.40;;;5.40;99.90;;;;;;4916592;29;20453;-50
2022/01/28 08:30:40;;;;;;;6.40;1.43;;;5.40;99.90;;;;;;4917176;29;20482;-52
2022/01/28 08:33:07;;;;;;;7.57;1.83;;;5.40;99.90;;;;;;4916992;29;20451;-49
2022/01/28 08:35:37;;;;;;;8.00;1.83;;;5.40;99.90;;;;;;4915597;29;20487;-50
2022/01/28 08:38:12;;;;;;;6.10;1.83;;;5.90;99.90;;;;;;4914160;29;20530;-49
2022/01/28 08:40:41;;;;;;;1.73;1.33;;;6.70;99.90;;;;;;4913256;29;20456;-53
2022/01/28 08:43:09;;;;;;;16.47;2.10;;;6.60;99.90;;;;;;4914318;29;20480;-54
2022/01/28 08:45:36;;;;;;;8.80;1.97;;;6.30;99.90;;;;;;4916207;29;20501;-51
2022/01/28 08:48:02;;;;;;;9.40;2.90;;;6.20;99.90;;;;;;4916378;29;20487;-50
2022/01/28 08:50:29;;;;;;;5.20;2.43;;;6.00;99.90;;;;;;4917046;29;20776;-53
2022/01/28 08:52:56;;;;;;;2.50;0.70;;;5.80;99.90;;;;;;4916493;29;20518;-52
2022/01/28 08:55:23;;;;;;;15.13;2.30;;;5.70;99.90;;;;;;4916808;29;20471;-53
2022/01/28 08:57:49;;;;;;;11.03;2.30;;;5.70;99.90;;;;;;4917338;29;20448;-52
2022/01/28 09:00:18;;;;;;;7.50;1.40;;;5.70;99.90;;;;;;4916506;29;20474;-55
2022/01/28 09:02:46;;;;;;;13.63;2.07;;;5.60;99.90;;;;;;4916680;29;20514;-52
2022/01/28 09:05:13;;;;;;;9.97;1.67;;;5.70;99.90;;;;;;4916235;29;20480;-53
2022/01/28 09:07:40;;;;;;;6.20;1.37;;;5.70;99.90;;;;;;4915634;29;20459;-52
2022/01/28 09:10:18;;;;;;;5.83;1.40;;;5.70;99.90;;;;;;4915722;29;20524;-51
2022/01/28 09:12:49;;;;;;;3.37;1.73;;;5.70;99.90;;;;;;4916294;29;20443;-53
2022/01/28 09:15:18;;;;;;;7.23;1.57;;;5.70;99.90;;;;;;4915845;29;20541;-52
2022/01/28 09:17:45;;;;;;;4.27;2.13;;;5.70;99.90;;;;;;4916052;29;20458;-50
2022/01/28 09:20:12;;;;;;;7.20;2.30;;;5.70;99.90;;;;;;4916403;29;20453;-55
2022/01/28 09:22:39;;;;;;;2.47;1.67;;;5.70;99.90;;;;;;4915896;29;20449;-56
2022/01/28 09:25:07;;;;;;;5.20;1.03;;;5.80;99.90;;;;;;4916203;29;20470;-57
2022/01/28 09:27:34;;;;;;;7.23;0.93;;;5.80;99.90;;;;;;4915552;29;20470;-55
2022/01/28 09:30:01;;;;;;;6.30;1.10;;;5.80;99.90;;;;;;4915462;29;20493;-50
2022/01/28 09:32:29;;;;;;;4.40;0.90;;;5.80;99.90;;;;;;4915250;29;20461;-56
2022/01/28 09:34:55;;;;;;;15.97;2.70;;;5.90;99.90;;;;;;4915663;29;20462;-55
2022/01/28 09:37:23;;;;;;;5.50;1.63;;;5.90;99.90;;;;;;4913628;29;20462;-54
2022/01/28 09:39:50;;;;;;;5.07;1.27;;;6.00;99.90;;;;;;4913005;29;20435;-51
2022/01/28 09:42:21;;;;;;;2.80;0.90;;;6.10;99.90;;;;;;4913243;29;20490;-58
2022/01/28 09:44:48;;;;;;;5.63;2.03;;;6.10;99.90;;;;;;4913410;29;20504;-55
2022/01/28 09:47:15;;;;;;;3.67;1.40;;;6.20;99.90;;;;;;4913622;29;20815;-54
2022/01/28 09:49:44;;;;;;;6.43;1.90;;;6.40;99.90;;;;;;4911539;29;20499;-57
2022/01/28 09:52:12;;;;;;;3.30;1.00;;;7.20;99.90;;;;;;4908940;29;20447;-57
2022/01/28 09:54:43;;;;;;;8.73;1.60;;;8.10;99.90;;;;;;4907514;29;20539;-57
2022/01/28 09:57:10;;;;;;;7.90;1.70;;;8.90;99.90;;;;;;4906934;29;20499;-54
2022/01/28 09:59:37;;;;;;;2.23;0.93;;;9.10;99.90;;;;;;4907621;29;20455;-54
2022/01/28 10:02:05;;;;;;;8.00;1.37;;;9.10;99.90;;;;;;4907659;29;20464;-52
2022/01/28 10:04:32;;;;;;;4.23;1.90;;;9.30;99.90;;;;;;4907612;29;20475;-59
2022/01/28 10:07:10;;;;;;;10.50;2.07;;;9.30;99.90;;;;;;4906697;29;20505;-59
2022/01/28 10:09:36;;;;;;;7.00;1.83;;;9.60;99.90;;;;;;4906805;29;20880;-55
2022/01/28 10:12:17;;;;;;;9.67;1.57;;;9.80;99.90;;;;;;4907274;29;20475;-57
2022/01/28 10:15:01;;;;;;;4.50;1.30;;;9.60;99.90;;;;;;4909579;29;20466;-55
2022/01/28 10:17:52;;;;;;;5.90;2.77;;;9.00;99.90;;;;;;4910139;29;20435;-58
2022/01/28 10:20:19;;;;;;;3.40;1.37;;;8.60;99.90;;;;;;4908799;29;20446;-55
2022/01/28 10:22:52;;;;;;;9.80;1.63;;;8.50;99.90;;;;;;4908546;29;20461;-57
2022/01/28 10:25:23;;;;;;;5.37;1.30;;;8.40;99.90;;;;;;4908302;29;20525;-58
2022/01/28 10:28:01;;;;;;;4.53;1.80;;;8.00;99.90;;;;;;4909347;29;20461;-57
2022/01/28 10:30:28;;;;;;;3.73;2.00;;;7.90;99.90;;;;;;4909071;29;20484;-57
2022/01/28 10:33:12;;;;;;;6.43;1.70;;;7.80;99.90;;;;;;4908676;29;20461;-58
2022/01/28 10:35:39;;;;;;;5.20;1.70;;;7.70;99.90;;;;;;4908677;29;20488;-56
2022/01/28 10:38:07;;;;;;;5.20;2.00;;;7.70;99.90;;;;;;4908177;29;20481;-56
2022/01/28 10:40:35;;;;;;;5.63;1.43;;;7.70;99.90;;;;;;4908758;29;20500;-56
2022/01/28 10:43:01;;;;;;;8.10;1.57;;;7.40;99.90;;;;;;4909244;29;20494;-58
2022/01/28 10:45:31;;;;;;;6.10;1.50;;;7.40;99.90;;;;;;4909747;29;20461;-57
2022/01/28 10:47:59;;;;;;;4.73;1.40;;;7.60;99.90;;;;;;4919690;29;20903;-59
2022/01/28 10:50:28;;;;;;;9.60;1.53;;;7.90;99.90;;;;;;4919233;29;20489;-54
2022/01/28 10:53:06;;;;;;;3.83;1.03;;;7.90;99.90;;;;;;4920284;29;20463;-57
2022/01/28 10:55:40;;;;;;;10.70;1.30;;;7.80;99.90;;;;;;4919655;29;20425;-58
2022/01/28 10:58:08;;;;;;;6.40;1.27;;;8.00;99.90;;;;;;4919012;29;20485;-57
2022/01/28 11:00:37;;;;;;;4.80;1.30;;;8.00;99.90;;;;;;4919078;29;20445;-59
2022/01/28 11:03:06;;;;;;;6.87;1.90;;;8.10;99.90;;;;;;4902356;29;20482;-60
2022/01/28 11:05:35;;;;;;;6.47;1.97;;;8.30;99.90;;;;;;4902042;29;20454;-63
2022/01/28 11:08:04;;;;;;;12.63;1.30;;;8.30;99.90;;;;;;4898088;29;20455;-59
2022/01/28 11:10:32;;;;;;;19.67;2.17;;;8.00;99.90;;;;;;4897722;29;20468;-59
2022/01/28 11:13:02;;;;;;;1.20;0.83;;;8.30;99.90;;;;;;4901899;29;20510;-60
2022/01/28 11:15:30;;;;;;;7.20;1.73;;;8.40;99.90;;;;;;4901614;29;20478;-55
2022/01/28 11:17:58;;;;;;;4.17;1.90;;;8.30;99.90;;;;;;4901738;29;20547;-60
2022/01/28 11:20:29;;;;;;;16.10;2.87;;;8.30;99.90;;;;;;4901148;29;20516;-60
2022/01/28 11:23:05;;;;;;;7.03;1.70;;;8.10;99.90;;;;;;4901607;29;20449;-60
2022/01/28 11:25:44;;;;;;;1.60;1.20;;;7.90;99.90;;;;;;4901553;29;20455;-58
2022/01/28 11:28:14;;;;;;;5.60;2.00;;;7.70;99.90;;;;;;4902394;29;20465;-59
2022/01/28 11:30:52;;;;;;;8.90;1.70;;;7.70;99.90;;;;;;4902391;29;20931;-59
2022/01/28 11:33:19;;;;;;;2.90;1.10;;;7.70;99.90;;;;;;4903271;29;20518;-61
2022/01/28 11:36:04;;;;;;;4.30;2.93;;;7.70;99.90;;;;;;4904054;29;20451;-63
2022/01/28 11:38:41;;;;;;;3.37;1.63;;;7.70;99.90;;;;;;4889502;29;20538;-60
2022/01/28 11:41:10;;;;;;;4.60;3.43;;;7.70;99.90;;;;;;4882618;29;20928;-57
2022/01/28 11:43:49;;;;;;;3.53;1.73;;;7.90;99.90;;;;;;4897969;29;20466;-59
2022/01/28 11:46:22;;;;;;;5.67;1.40;;;8.10;99.90;;;;;;4901222;29;20468;-59
2022/01/28 11:49:21;;;;;;;11.03;1.53;;;8.00;99.90;;;;;;4909874;29;20464;-55
2022/01/28 11:51:49;;;;;;;5.37;1.53;;;7.90;99.90;;;;;;4903195;29;20566;-55
2022/01/28 11:54:19;;;;;;;18.43;2.03;;;7.80;99.90;;;;;;4906626;29;20458;-55
2022/01/28 11:57:16;;;;;;;4.17;1.70;;;7.60;99.90;;;;;;4907859;29;20845;-63
2022/01/28 11:59:46;;;;;;;7.37;2.33;;;7.60;99.90;;;;;;4917796;29;20512;-50
2022/01/28 12:02:19;;;;;;;4.30;1.40;;;7.50;99.90;;;;;;4916050;29;20461;-52
2022/01/28 12:04:49;;;;;;;4.97;1.47;;;7.50;99.90;;;;;;4910808;29;20419;-38
2022/01/28 12:07:22;;;;;;;3.00;0.80;;;7.50;99.90;;;;;;4910728;29;20947;-55
2022/01/28 12:09:50;;;;;;;9.07;1.40;;;7.40;99.90;;;;;;4909667;29;20499;-44
2022/01/28 12:12:58;;;;;;;14.00;1.80;;;7.30;99.90;;;;;;4922269;29;20518;-39
2022/01/28 12:15:30;;;;;;;5.10;1.20;;;7.30;99.90;;;;;;4919547;29;20455;-41
2022/01/28 12:18:09;;;;;;;11.03;1.90;;;7.30;99.90;;;;;;4921772;29;20463;-45
2022/01/28 12:20:47;;;;;;;14.90;2.37;;;7.40;99.90;;;;;;4925432;29;20442;-39
2022/01/28 12:23:29;;;;;;;2.50;0.90;;;7.50;99.90;;;;;;4925404;29;20434;-39
2022/01/28 12:26:00;;;;;;;4.57;1.50;;;7.40;99.90;;;;;;4925427;29;20516;-42
2022/01/28 12:28:59;;;;;;;6.53;1.87;;;7.40;99.90;;;;;;4925267;29;20419;-40
2022/01/28 12:31:31;;;;;;;1.10;0.87;;;7.50;99.90;;;;;;4924677;29;20460;-37
2022/01/28 12:34:04;;;;;;;1.20;0.83;;;7.60;99.90;;;;;;4924954;29;20463;-38
2022/01/28 12:36:34;;;;;;;3.93;1.43;;;7.70;99.90;;;;;;4925103;29;20419;-38
2022/01/28 12:39:15;;;;;;;5.00;2.23;;;7.80;99.90;;;;;;4925069;29;20437;-35
2022/01/28 12:41:53;;;;;;;2.40;1.17;;;7.80;99.90;;;;;;4924981;29;20420;-38
2022/01/28 12:44:20;;;;;;;2.73;1.20;;;7.90;99.90;;;;;;4925070;29;20432;-40
2022/01/28 12:46:54;;;;;;;8.07;1.80;;;8.00;99.90;;;;;;4924966;29;20447;-39
2022/01/28 12:49:30;;;;;;;14.47;1.53;;;7.90;99.90;;;;;;4924895;29;20427;-38
2022/01/28 12:51:59;;;;;;;5.57;1.33;;;7.80;99.90;;;;;;4924798;29;20533;-40
2022/01/28 12:54:35;;;;;;;12.73;1.60;;;7.70;99.90;;;;;;4924796;29;20458;-40
2022/01/28 12:57:02;;;;;;;9.20;2.47;;;7.50;99.90;;;;;;4924648;29;20442;-42
2022/01/28 12:59:29;;;;;;;5.13;1.00;;;7.50;99.90;;;;;;4924784;29;20431;-39
2022/01/28 13:01:58;;;;;;;2.60;1.13;;;7.40;99.90;;;;;;4924627;29;20435;-39
2022/01/28 13:04:37;;;;;;;2.97;1.70;;;7.40;99.90;;;;;;4924477;29;20467;-44
2022/01/28 13:09:53;;;;;;;18.00;2.13;;;7.40;99.90;;;;;;4924621;29;20520;-39
2022/01/28 13:12:24;;;;;;;1.50;0.90;;;7.40;99.90;;;;;;4924543;29;20441;-42
2022/01/28 13:14:55;;;;;;;11.37;1.30;;;7.50;99.90;;;;;;4924449;29;20453;-41
2022/01/28 13:17:24;;;;;;;4.37;1.23;;;7.50;99.90;;;;;;4924240;29;20471;-42
2022/01/28 13:20:00;;;;;;;5.03;1.87;;;7.50;99.90;;;;;;4924222;29;20427;-39
2022/01/28 13:22:32;;;;;;;2.10;1.47;;;7.50;99.90;;;;;;4923977;29;20448;-38
2022/01/28 13:25:15;;;;;;;2.10;1.20;;;7.40;99.90;;;;;;4924056;29;20483;-41
2022/01/28 13:27:46;;;;;;;2.40;1.17;;;7.40;99.90;;;;;;4924346;29;20483;-44
2022/01/28 13:30:16;;;;;;;3.43;1.20;;;7.40;99.90;;;;;;4923108;29;20510;-40
2022/01/28 13:32:52;;;;;;;2.33;1.93;;;7.40;99.90;;;;;;4924054;29;20420;-40
2022/01/28 13:35:22;;;;;;;1.37;1.00;;;7.40;99.90;;;;;;4923966;29;20446;-42
2022/01/28 13:37:55;;;;;;;8.23;1.33;;;7.30;99.90;;;;;;4923888;29;20438;-42
2022/01/28 13:40:38;;;;;;;9.37;2.80;;;7.40;99.90;;;;;;4923834;29;20460;-41
2022/01/28 13:43:08;;;;;;;16.97;1.37;;;7.30;99.90;;;;;;4923898;29;20427;-41
2022/01/28 13:45:41;;;;;;;3.87;1.67;;;7.30;99.90;;;;;;4923681;29;20427;-40
2022/01/28 13:48:15;;;;;;;3.00;0.97;;;7.40;99.90;;;;;;4923762;29;20458;-45
2022/01/28 13:50:46;;;;;;;2.40;1.30;;;7.40;99.90;;;;;;4923817;29;20466;-41
2022/01/28 13:54:10;;;;;;;3.70;1.07;;;7.40;99.90;;;;;;4919521;29;20463;-38
2022/01/28 13:56:25;;;;;;;4.13;1.33;;;7.40;99.90;;;;;;4923339;29;20427;-38
2022/01/28 13:58:59;;;;;;;2.60;1.03;;;7.30;99.90;;;;;;4911513;29;20439;-37
2022/01/28 14:01:29;;;;;;;8.43;1.37;;;7.30;99.90;;;;;;4920177;29;20483;-38
2022/01/28 14:03:59;;;;;;;2.00;1.03;;;7.30;99.90;;;;;;4924579;29;20449;-37
2022/01/28 14:06:33;;;;;;;1.80;1.27;;;7.20;99.90;;;;;;4942003;29;20446;-41
2022/01/28 14:09:11;;;;;;;3.13;1.00;;;7.20;99.90;;;;;;4940944;29;20439;-36
2022/01/28 14:11:43;;;;;;;1.90;0.80;;;7.20;99.90;;;;;;4941395;29;20487;-46
2022/01/28 14:14:19;;;;;;;1.97;0.90;;;7.30;99.90;;;;;;4941553;29;20442;-41